sensor_id;sensor_type;location;lat;lon;timestamp;P1;durP1;ratioP1;P2;durP2;ratioP2
677;SDS011;321;48.814;9.132;2022-11-20T00:01:07;4.32;;;2.75;;
677;SDS011;321;48.814;9.132;2022-11-20T00:03:37;2.63;;;2.42;;
677;SDS011;321;48.814;9.132;2022-11-20T00:06:04;3.10;;;2.90;;
677;SDS011;321;48.814;9.132;2022-11-20T00:08:31;4.63;;;3.22;;
677;SDS011;321;48.814;9.132;2022-11-20T00:10:57;3.43;;;3.13;;
677;SDS011;321;48.814;9.132;2022-11-20T00:13:22;3.77;;;2.93;;
677;SDS011;321;48.814;9.132;2022-11-20T00:15:48;3.50;;;2.77;;
677;SDS011;321;48.814;9.132;2022-11-20T00:18:14;2.53;;;2.20;;
677;SDS011;321;48.814;9.132;2022-11-20T00:20:39;3.20;;;2.90;;
677;SDS011;321;48.814;9.132;2022-11-20T00:23:05;2.37;;;2.00;;
677;SDS011;321;48.814;9.132;2022-11-20T00:25:33;3.57;;;3.20;;
677;SDS011;321;48.814;9.132;2022-11-20T00:27:59;4.55;;;3.22;;
677;SDS011;321;48.814;9.132;2022-11-20T00:30:25;3.17;;;2.60;;
677;SDS011;321;48.814;9.132;2022-11-20T00:32:50;3.90;;;2.60;;
677;SDS011;321;48.814;9.132;2022-11-20T00:35:16;4.90;;;4.33;;
677;SDS011;321;48.814;9.132;2022-11-20T00:37:41;5.63;;;3.27;;
677;SDS011;321;48.814;9.132;2022-11-20T00:40:07;2.40;;;1.60;;
677;SDS011;321;48.814;9.132;2022-11-20T00:42:33;2.80;;;2.60;;
677;SDS011;321;48.814;9.132;2022-11-20T00:44:59;8.57;;;3.43;;
677;SDS011;321;48.814;9.132;2022-11-20T00:47:26;5.00;;;2.55;;
677;SDS011;321;48.814;9.132;2022-11-20T00:49:52;3.47;;;3.17;;
677;SDS011;321;48.814;9.132;2022-11-20T00:52:17;4.43;;;4.00;;
677;SDS011;321;48.814;9.132;2022-11-20T00:54:43;2.50;;;2.17;;
677;SDS011;321;48.814;9.132;2022-11-20T00:57:08;2.70;;;1.93;;
677;SDS011;321;48.814;9.132;2022-11-20T00:59:34;2.93;;;2.63;;
677;SDS011;321;48.814;9.132;2022-11-20T01:01:59;3.83;;;3.00;;
677;SDS011;321;48.814;9.132;2022-11-20T01:04:25;3.20;;;2.90;;
677;SDS011;321;48.814;9.132;2022-11-20T01:06:50;1.97;;;1.77;;
677;SDS011;321;48.814;9.132;2022-11-20T01:09:16;4.43;;;2.90;;
677;SDS011;321;48.814;9.132;2022-11-20T01:11:42;4.70;;;2.60;;
677;SDS011;321;48.814;9.132;2022-11-20T01:14:13;2.63;;;2.30;;
677;SDS011;321;48.814;9.132;2022-11-20T01:16:41;3.20;;;2.50;;
677;SDS011;321;48.814;9.132;2022-11-20T01:19:12;2.65;;;2.15;;
677;SDS011;321;48.814;9.132;2022-11-20T01:21:47;4.77;;;3.90;;
677;SDS011;321;48.814;9.132;2022-11-20T01:24:16;2.80;;;2.23;;
677;SDS011;321;48.814;9.132;2022-11-20T01:26:43;3.38;;;3.08;;
677;SDS011;321;48.814;9.132;2022-11-20T01:29:14;3.40;;;2.63;;
677;SDS011;321;48.814;9.132;2022-11-20T01:31:41;4.35;;;2.67;;
677;SDS011;321;48.814;9.132;2022-11-20T01:34:12;3.28;;;2.22;;
677;SDS011;321;48.814;9.132;2022-11-20T01:36:40;2.90;;;1.80;;
677;SDS011;321;48.814;9.132;2022-11-20T01:39:13;2.28;;;2.05;;
677;SDS011;321;48.814;9.132;2022-11-20T01:41:44;5.78;;;2.15;;
677;SDS011;321;48.814;9.132;2022-11-20T01:44:43;3.38;;;2.85;;
677;SDS011;321;48.814;9.132;2022-11-20T01:47:34;2.45;;;1.60;;
677;SDS011;321;48.814;9.132;2022-11-20T01:52:36;3.77;;;2.20;;
677;SDS011;321;48.814;9.132;2022-11-20T01:55:15;4.20;;;3.00;;
677;SDS011;321;48.814;9.132;2022-11-20T01:57:46;2.65;;;1.70;;
677;SDS011;321;48.814;9.132;2022-11-20T02:00:15;2.60;;;2.40;;
677;SDS011;321;48.814;9.132;2022-11-20T02:02:43;2.50;;;1.85;;
677;SDS011;321;48.814;9.132;2022-11-20T02:05:23;3.55;;;2.60;;
677;SDS011;321;48.814;9.132;2022-11-20T02:08:11;3.85;;;3.03;;
677;SDS011;321;48.814;9.132;2022-11-20T02:10:37;2.67;;;1.90;;
677;SDS011;321;48.814;9.132;2022-11-20T02:13:03;2.80;;;1.40;;
677;SDS011;321;48.814;9.132;2022-11-20T02:15:47;4.15;;;2.70;;
677;SDS011;321;48.814;9.132;2022-11-20T02:18:14;1.90;;;1.70;;
677;SDS011;321;48.814;9.132;2022-11-20T02:20:42;2.15;;;1.75;;
677;SDS011;321;48.814;9.132;2022-11-20T02:25:58;2.47;;;2.27;;
677;SDS011;321;48.814;9.132;2022-11-20T02:28:28;2.00;;;1.73;;
677;SDS011;321;48.814;9.132;2022-11-20T02:30:53;4.43;;;1.80;;
677;SDS011;321;48.814;9.132;2022-11-20T02:33:19;2.30;;;2.10;;
677;SDS011;321;48.814;9.132;2022-11-20T02:35:45;3.33;;;2.40;;
677;SDS011;321;48.814;9.132;2022-11-20T02:38:11;2.58;;;2.38;;
677;SDS011;321;48.814;9.132;2022-11-20T02:40:38;2.40;;;2.20;;
677;SDS011;321;48.814;9.132;2022-11-20T02:43:04;2.30;;;1.47;;
677;SDS011;321;48.814;9.132;2022-11-20T02:45:29;1.27;;;1.00;;
677;SDS011;321;48.814;9.132;2022-11-20T02:47:55;1.20;;;0.60;;
677;SDS011;321;48.814;9.132;2022-11-20T02:50:21;1.63;;;0.87;;
677;SDS011;321;48.814;9.132;2022-11-20T02:52:46;1.70;;;1.30;;
677;SDS011;321;48.814;9.132;2022-11-20T02:55:12;1.47;;;0.80;;
677;SDS011;321;48.814;9.132;2022-11-20T02:57:37;1.27;;;1.00;;
677;SDS011;321;48.814;9.132;2022-11-20T03:00:05;2.90;;;1.00;;
677;SDS011;321;48.814;9.132;2022-11-20T03:02:32;1.95;;;1.20;;
677;SDS011;321;48.814;9.132;2022-11-20T03:04:58;1.10;;;0.60;;
677;SDS011;321;48.814;9.132;2022-11-20T03:07:23;1.93;;;1.20;;
677;SDS011;321;48.814;9.132;2022-11-20T03:09:50;1.30;;;0.77;;
677;SDS011;321;48.814;9.132;2022-11-20T03:12:15;1.40;;;0.83;;
677;SDS011;321;48.814;9.132;2022-11-20T03:14:41;4.00;;;0.80;;
677;SDS011;321;48.814;9.132;2022-11-20T03:17:07;1.60;;;1.20;;
677;SDS011;321;48.814;9.132;2022-11-20T03:19:33;1.27;;;0.80;;
677;SDS011;321;48.814;9.132;2022-11-20T03:21:59;3.33;;;1.45;;
677;SDS011;321;48.814;9.132;2022-11-20T03:24:25;1.30;;;0.90;;
677;SDS011;321;48.814;9.132;2022-11-20T03:26:50;1.77;;;0.97;;
677;SDS011;321;48.814;9.132;2022-11-20T03:29:16;1.97;;;1.03;;
677;SDS011;321;48.814;9.132;2022-11-20T03:31:42;1.20;;;0.60;;
677;SDS011;321;48.814;9.132;2022-11-20T03:34:08;1.40;;;0.70;;
677;SDS011;321;48.814;9.132;2022-11-20T03:36:35;1.20;;;0.80;;
677;SDS011;321;48.814;9.132;2022-11-20T03:39:06;1.23;;;0.65;;
677;SDS011;321;48.814;9.132;2022-11-20T03:41:35;1.50;;;1.30;;
677;SDS011;321;48.814;9.132;2022-11-20T03:44:03;1.10;;;0.60;;
677;SDS011;321;48.814;9.132;2022-11-20T03:46:31;1.20;;;0.70;;
677;SDS011;321;48.814;9.132;2022-11-20T03:48:57;1.33;;;1.10;;
677;SDS011;321;48.814;9.132;2022-11-20T03:51:26;1.43;;;1.13;;
677;SDS011;321;48.814;9.132;2022-11-20T03:53:57;1.40;;;0.90;;
677;SDS011;321;48.814;9.132;2022-11-20T03:56:28;2.22;;;0.98;;
677;SDS011;321;48.814;9.132;2022-11-20T03:58:56;2.38;;;0.80;;
677;SDS011;321;48.814;9.132;2022-11-20T04:01:23;1.48;;;0.95;;
677;SDS011;321;48.814;9.132;2022-11-20T04:03:54;1.50;;;1.00;;
677;SDS011;321;48.814;9.132;2022-11-20T04:06:22;2.10;;;0.77;;
677;SDS011;321;48.814;9.132;2022-11-20T04:08:49;1.20;;;0.73;;
677;SDS011;321;48.814;9.132;2022-11-20T04:13:42;1.20;;;0.77;;
677;SDS011;321;48.814;9.132;2022-11-20T04:16:12;1.38;;;1.20;;
677;SDS011;321;48.814;9.132;2022-11-20T04:18:38;1.50;;;1.17;;
677;SDS011;321;48.814;9.132;2022-11-20T04:21:04;1.50;;;1.27;;
677;SDS011;321;48.814;9.132;2022-11-20T04:23:30;2.40;;;1.50;;
677;SDS011;321;48.814;9.132;2022-11-20T04:26:09;1.40;;;1.23;;
677;SDS011;321;48.814;9.132;2022-11-20T04:28:36;1.40;;;0.95;;
677;SDS011;321;48.814;9.132;2022-11-20T04:31:06;1.52;;;0.98;;
677;SDS011;321;48.814;9.132;2022-11-20T04:33:34;2.15;;;0.90;;
677;SDS011;321;48.814;9.132;2022-11-20T04:36:04;1.30;;;0.70;;
677;SDS011;321;48.814;9.132;2022-11-20T04:38:41;1.35;;;0.70;;
677;SDS011;321;48.814;9.132;2022-11-20T04:41:08;1.10;;;0.40;;
677;SDS011;321;48.814;9.132;2022-11-20T04:43:40;1.48;;;1.08;;
677;SDS011;321;48.814;9.132;2022-11-20T04:46:06;1.70;;;1.43;;
677;SDS011;321;48.814;9.132;2022-11-20T04:48:31;1.63;;;1.23;;
677;SDS011;321;48.814;9.132;2022-11-20T04:50:57;1.20;;;0.67;;
677;SDS011;321;48.814;9.132;2022-11-20T04:53:22;1.17;;;0.80;;
677;SDS011;321;48.814;9.132;2022-11-20T04:55:48;1.60;;;0.85;;
677;SDS011;321;48.814;9.132;2022-11-20T04:58:14;1.20;;;0.70;;
677;SDS011;321;48.814;9.132;2022-11-20T05:00:41;1.58;;;0.98;;
677;SDS011;321;48.814;9.132;2022-11-20T05:03:06;1.20;;;0.63;;
677;SDS011;321;48.814;9.132;2022-11-20T05:05:33;1.30;;;1.10;;
677;SDS011;321;48.814;9.132;2022-11-20T05:07:59;2.10;;;1.08;;
677;SDS011;321;48.814;9.132;2022-11-20T05:10:25;1.47;;;0.83;;
677;SDS011;321;48.814;9.132;2022-11-20T05:12:51;1.88;;;0.80;;
677;SDS011;321;48.814;9.132;2022-11-20T05:15:17;1.80;;;0.87;;
677;SDS011;321;48.814;9.132;2022-11-20T05:17:49;1.33;;;0.93;;
677;SDS011;321;48.814;9.132;2022-11-20T05:20:15;1.10;;;0.60;;
677;SDS011;321;48.814;9.132;2022-11-20T05:22:41;1.40;;;1.03;;
677;SDS011;321;48.814;9.132;2022-11-20T05:25:07;2.05;;;1.23;;
677;SDS011;321;48.814;9.132;2022-11-20T05:27:33;1.30;;;0.67;;
677;SDS011;321;48.814;9.132;2022-11-20T05:29:59;1.30;;;0.87;;
677;SDS011;321;48.814;9.132;2022-11-20T05:32:25;1.25;;;0.82;;
677;SDS011;321;48.814;9.132;2022-11-20T05:34:51;1.20;;;0.70;;
677;SDS011;321;48.814;9.132;2022-11-20T05:37:17;1.20;;;0.90;;
677;SDS011;321;48.814;9.132;2022-11-20T05:39:43;1.40;;;0.80;;
677;SDS011;321;48.814;9.132;2022-11-20T05:42:08;1.53;;;0.97;;
677;SDS011;321;48.814;9.132;2022-11-20T05:44:52;1.10;;;0.57;;
677;SDS011;321;48.814;9.132;2022-11-20T05:47:18;1.10;;;0.60;;
677;SDS011;321;48.814;9.132;2022-11-20T05:49:44;1.63;;;0.77;;
677;SDS011;321;48.814;9.132;2022-11-20T05:52:09;1.20;;;0.83;;
677;SDS011;321;48.814;9.132;2022-11-20T05:54:35;1.43;;;1.03;;
677;SDS011;321;48.814;9.132;2022-11-20T05:57:00;1.40;;;0.73;;
677;SDS011;321;48.814;9.132;2022-11-20T05:59:26;1.20;;;1.00;;
677;SDS011;321;48.814;9.132;2022-11-20T06:01:51;1.40;;;0.77;;
677;SDS011;321;48.814;9.132;2022-11-20T06:04:17;1.00;;;0.40;;
677;SDS011;321;48.814;9.132;2022-11-20T06:06:42;1.20;;;0.70;;
677;SDS011;321;48.814;9.132;2022-11-20T06:09:08;1.30;;;0.70;;
677;SDS011;321;48.814;9.132;2022-11-20T06:11:33;1.70;;;0.83;;
677;SDS011;321;48.814;9.132;2022-11-20T06:13:59;1.30;;;0.80;;
677;SDS011;321;48.814;9.132;2022-11-20T06:16:25;1.30;;;0.90;;
677;SDS011;321;48.814;9.132;2022-11-20T06:18:50;1.40;;;0.90;;
677;SDS011;321;48.814;9.132;2022-11-20T06:21:17;1.60;;;0.87;;
677;SDS011;321;48.814;9.132;2022-11-20T06:23:44;1.10;;;0.50;;
677;SDS011;321;48.814;9.132;2022-11-20T06:26:11;1.83;;;0.93;;
677;SDS011;321;48.814;9.132;2022-11-20T06:28:38;1.67;;;0.93;;
677;SDS011;321;48.814;9.132;2022-11-20T06:31:05;1.40;;;0.60;;
677;SDS011;321;48.814;9.132;2022-11-20T06:33:31;1.10;;;0.57;;
677;SDS011;321;48.814;9.132;2022-11-20T06:35:58;1.10;;;0.60;;
677;SDS011;321;48.814;9.132;2022-11-20T06:38:24;1.15;;;0.70;;
677;SDS011;321;48.814;9.132;2022-11-20T06:40:51;1.10;;;0.50;;
677;SDS011;321;48.814;9.132;2022-11-20T06:43:16;1.10;;;0.50;;
677;SDS011;321;48.814;9.132;2022-11-20T06:45:42;3.83;;;0.80;;
677;SDS011;321;48.814;9.132;2022-11-20T06:48:08;1.10;;;0.50;;
677;SDS011;321;48.814;9.132;2022-11-20T06:50:34;1.10;;;0.70;;
677;SDS011;321;48.814;9.132;2022-11-20T06:53:01;1.95;;;1.48;;
677;SDS011;321;48.814;9.132;2022-11-20T06:55:28;1.92;;;1.00;;
677;SDS011;321;48.814;9.132;2022-11-20T06:57:54;1.10;;;0.60;;
677;SDS011;321;48.814;9.132;2022-11-20T07:00:19;1.10;;;0.50;;
677;SDS011;321;48.814;9.132;2022-11-20T07:02:45;1.60;;;1.13;;
677;SDS011;321;48.814;9.132;2022-11-20T07:05:10;1.10;;;0.60;;
677;SDS011;321;48.814;9.132;2022-11-20T07:07:36;1.10;;;0.60;;
677;SDS011;321;48.814;9.132;2022-11-20T07:10:04;1.10;;;0.50;;
677;SDS011;321;48.814;9.132;2022-11-20T07:12:30;2.38;;;1.13;;
677;SDS011;321;48.814;9.132;2022-11-20T07:14:55;1.10;;;0.63;;
677;SDS011;321;48.814;9.132;2022-11-20T07:17:21;1.10;;;0.63;;
677;SDS011;321;48.814;9.132;2022-11-20T07:19:47;1.10;;;0.50;;
677;SDS011;321;48.814;9.132;2022-11-20T07:22:12;1.10;;;0.60;;
677;SDS011;321;48.814;9.132;2022-11-20T07:24:38;1.10;;;0.60;;
677;SDS011;321;48.814;9.132;2022-11-20T07:27:04;1.20;;;0.60;;
677;SDS011;321;48.814;9.132;2022-11-20T07:29:30;1.10;;;0.50;;
677;SDS011;321;48.814;9.132;2022-11-20T07:31:56;1.20;;;0.77;;
677;SDS011;321;48.814;9.132;2022-11-20T07:34:22;1.10;;;0.63;;
677;SDS011;321;48.814;9.132;2022-11-20T07:36:47;1.20;;;0.73;;
677;SDS011;321;48.814;9.132;2022-11-20T07:39:13;1.23;;;0.57;;
677;SDS011;321;48.814;9.132;2022-11-20T07:41:38;1.63;;;1.10;;
677;SDS011;321;48.814;9.132;2022-11-20T07:44:04;1.20;;;0.80;;
677;SDS011;321;48.814;9.132;2022-11-20T07:46:30;1.30;;;0.83;;
677;SDS011;321;48.814;9.132;2022-11-20T07:48:55;1.20;;;0.90;;
677;SDS011;321;48.814;9.132;2022-11-20T07:51:21;1.50;;;1.23;;
677;SDS011;321;48.814;9.132;2022-11-20T07:53:47;1.87;;;1.20;;
677;SDS011;321;48.814;9.132;2022-11-20T07:56:12;1.40;;;0.60;;
677;SDS011;321;48.814;9.132;2022-11-20T07:58:39;1.10;;;0.50;;
677;SDS011;321;48.814;9.132;2022-11-20T08:01:07;1.10;;;0.60;;
677;SDS011;321;48.814;9.132;2022-11-20T08:03:33;1.67;;;0.98;;
677;SDS011;321;48.814;9.132;2022-11-20T08:06:02;1.30;;;0.77;;
677;SDS011;321;48.814;9.132;2022-11-20T08:08:28;1.10;;;0.55;;
677;SDS011;321;48.814;9.132;2022-11-20T08:10:56;2.43;;;1.23;;
677;SDS011;321;48.814;9.132;2022-11-20T08:13:42;1.10;;;0.60;;
677;SDS011;321;48.814;9.132;2022-11-20T08:16:27;1.55;;;0.80;;
677;SDS011;321;48.814;9.132;2022-11-20T08:18:53;1.40;;;0.80;;
677;SDS011;321;48.814;9.132;2022-11-20T08:21:18;1.83;;;1.13;;
677;SDS011;321;48.814;9.132;2022-11-20T08:23:44;1.50;;;1.03;;
677;SDS011;321;48.814;9.132;2022-11-20T08:26:09;1.07;;;0.50;;
677;SDS011;321;48.814;9.132;2022-11-20T08:28:35;1.10;;;0.60;;
677;SDS011;321;48.814;9.132;2022-11-20T08:31:00;1.10;;;0.60;;
677;SDS011;321;48.814;9.132;2022-11-20T08:33:28;1.40;;;0.90;;
677;SDS011;321;48.814;9.132;2022-11-20T08:35:57;1.10;;;0.50;;
677;SDS011;321;48.814;9.132;2022-11-20T08:38:28;1.27;;;0.70;;
677;SDS011;321;48.814;9.132;2022-11-20T08:41:00;1.40;;;0.85;;
677;SDS011;321;48.814;9.132;2022-11-20T08:43:46;1.30;;;0.80;;
677;SDS011;321;48.814;9.132;2022-11-20T08:46:12;1.20;;;0.80;;
677;SDS011;321;48.814;9.132;2022-11-20T08:48:38;1.10;;;0.50;;
677;SDS011;321;48.814;9.132;2022-11-20T08:51:03;1.10;;;0.60;;
677;SDS011;321;48.814;9.132;2022-11-20T08:53:29;1.10;;;0.43;;
677;SDS011;321;48.814;9.132;2022-11-20T08:55:56;1.50;;;1.00;;
677;SDS011;321;48.814;9.132;2022-11-20T08:58:21;1.10;;;0.53;;
677;SDS011;321;48.814;9.132;2022-11-20T09:00:47;1.47;;;0.70;;
677;SDS011;321;48.814;9.132;2022-11-20T09:03:13;1.17;;;0.50;;
677;SDS011;321;48.814;9.132;2022-11-20T09:05:38;1.03;;;0.40;;
677;SDS011;321;48.814;9.132;2022-11-20T09:08:04;1.10;;;0.50;;
677;SDS011;321;48.814;9.132;2022-11-20T09:10:30;1.03;;;0.40;;
677;SDS011;321;48.814;9.132;2022-11-20T09:12:56;1.10;;;0.50;;
677;SDS011;321;48.814;9.132;2022-11-20T09:15:21;1.73;;;0.80;;
677;SDS011;321;48.814;9.132;2022-11-20T09:17:54;1.10;;;0.50;;
677;SDS011;321;48.814;9.132;2022-11-20T09:20:25;1.07;;;0.40;;
677;SDS011;321;48.814;9.132;2022-11-20T09:22:52;1.10;;;0.40;;
677;SDS011;321;48.814;9.132;2022-11-20T09:25:17;2.03;;;1.47;;
677;SDS011;321;48.814;9.132;2022-11-20T09:27:43;1.40;;;0.70;;
677;SDS011;321;48.814;9.132;2022-11-20T09:30:10;1.10;;;0.40;;
677;SDS011;321;48.814;9.132;2022-11-20T09:32:38;1.00;;;0.40;;
677;SDS011;321;48.814;9.132;2022-11-20T09:35:04;1.00;;;0.40;;
677;SDS011;321;48.814;9.132;2022-11-20T09:37:30;1.77;;;0.67;;
677;SDS011;321;48.814;9.132;2022-11-20T09:39:56;1.30;;;0.80;;
677;SDS011;321;48.814;9.132;2022-11-20T09:42:27;1.20;;;0.77;;
677;SDS011;321;48.814;9.132;2022-11-20T09:45:24;1.10;;;0.50;;
677;SDS011;321;48.814;9.132;2022-11-20T09:50:45;1.10;;;0.50;;
677;SDS011;321;48.814;9.132;2022-11-20T09:53:45;1.30;;;0.50;;
677;SDS011;321;48.814;9.132;2022-11-20T09:56:53;1.13;;;0.50;;
677;SDS011;321;48.814;9.132;2022-11-20T09:59:27;1.10;;;0.55;;
677;SDS011;321;48.814;9.132;2022-11-20T10:02:18;1.10;;;0.50;;
677;SDS011;321;48.814;9.132;2022-11-20T10:05:11;1.10;;;0.50;;
677;SDS011;321;48.814;9.132;2022-11-20T10:07:53;1.00;;;0.40;;
677;SDS011;321;48.814;9.132;2022-11-20T10:13:17;1.10;;;0.50;;
677;SDS011;321;48.814;9.132;2022-11-20T10:16:28;1.10;;;0.50;;
677;SDS011;321;48.814;9.132;2022-11-20T10:29:11;1.10;;;0.60;;
677;SDS011;321;48.814;9.132;2022-11-20T10:31:40;1.10;;;0.60;;
677;SDS011;321;48.814;9.132;2022-11-20T10:39:33;1.10;;;0.50;;
677;SDS011;321;48.814;9.132;2022-11-20T10:42:04;1.20;;;0.80;;
677;SDS011;321;48.814;9.132;2022-11-20T10:44:36;1.40;;;0.57;;
677;SDS011;321;48.814;9.132;2022-11-20T10:47:22;1.20;;;0.70;;
677;SDS011;321;48.814;9.132;2022-11-20T10:49:51;1.10;;;0.50;;
677;SDS011;321;48.814;9.132;2022-11-20T10:52:25;1.10;;;0.53;;
677;SDS011;321;48.814;9.132;2022-11-20T10:57:46;1.43;;;0.70;;
677;SDS011;321;48.814;9.132;2022-11-20T11:00:20;1.13;;;0.63;;
677;SDS011;321;48.814;9.132;2022-11-20T11:02:47;1.37;;;0.83;;
677;SDS011;321;48.814;9.132;2022-11-20T11:05:32;1.77;;;0.60;;
677;SDS011;321;48.814;9.132;2022-11-20T11:07:59;1.00;;;0.40;;
677;SDS011;321;48.814;9.132;2022-11-20T11:13:20;1.10;;;0.57;;
677;SDS011;321;48.814;9.132;2022-11-20T11:15:50;1.40;;;0.73;;
677;SDS011;321;48.814;9.132;2022-11-20T11:18:27;1.20;;;0.70;;
677;SDS011;321;48.814;9.132;2022-11-20T11:20:55;1.50;;;0.60;;
677;SDS011;321;48.814;9.132;2022-11-20T11:23:26;1.20;;;1.00;;
677;SDS011;321;48.814;9.132;2022-11-20T11:25:56;1.37;;;0.97;;
677;SDS011;321;48.814;9.132;2022-11-20T11:28:23;1.30;;;0.70;;
677;SDS011;321;48.814;9.132;2022-11-20T11:30:52;1.10;;;0.50;;
677;SDS011;321;48.814;9.132;2022-11-20T11:33:19;1.40;;;1.03;;
677;SDS011;321;48.814;9.132;2022-11-20T11:35:50;1.40;;;0.80;;
677;SDS011;321;48.814;9.132;2022-11-20T11:41:06;1.20;;;0.73;;
677;SDS011;321;48.814;9.132;2022-11-20T11:43:35;1.53;;;0.93;;
677;SDS011;321;48.814;9.132;2022-11-20T11:46:25;1.50;;;1.03;;
677;SDS011;321;48.814;9.132;2022-11-20T11:49:13;1.27;;;0.73;;
677;SDS011;321;48.814;9.132;2022-11-20T11:56:55;1.73;;;1.00;;
677;SDS011;321;48.814;9.132;2022-11-20T11:59:30;1.37;;;1.00;;
677;SDS011;321;48.814;9.132;2022-11-20T12:02:15;1.10;;;0.50;;
677;SDS011;321;48.814;9.132;2022-11-20T12:04:52;1.70;;;0.80;;
677;SDS011;321;48.814;9.132;2022-11-20T12:07:27;1.63;;;0.93;;
677;SDS011;321;48.814;9.132;2022-11-20T12:13:04;1.20;;;0.53;;
677;SDS011;321;48.814;9.132;2022-11-20T12:15:44;3.30;;;0.80;;
677;SDS011;321;48.814;9.132;2022-11-20T12:18:14;1.10;;;0.43;;
677;SDS011;321;48.814;9.132;2022-11-20T12:20:47;1.30;;;0.60;;
677;SDS011;321;48.814;9.132;2022-11-20T12:29:10;1.10;;;0.40;;
677;SDS011;321;48.814;9.132;2022-11-20T12:31:45;1.10;;;0.50;;
677;SDS011;321;48.814;9.132;2022-11-20T12:40:15;1.10;;;0.50;;
677;SDS011;321;48.814;9.132;2022-11-20T12:42:46;1.00;;;0.40;;
677;SDS011;321;48.814;9.132;2022-11-20T12:45:48;3.50;;;0.57;;
677;SDS011;321;48.814;9.132;2022-11-20T12:54:10;1.30;;;0.50;;
677;SDS011;321;48.814;9.132;2022-11-20T12:57:18;1.10;;;0.40;;
677;SDS011;321;48.814;9.132;2022-11-20T13:00:01;11.03;;;1.63;;
677;SDS011;321;48.814;9.132;2022-11-20T13:05:17;1.10;;;0.60;;
677;SDS011;321;48.814;9.132;2022-11-20T13:07:44;1.30;;;0.63;;
677;SDS011;321;48.814;9.132;2022-11-20T13:10:13;1.27;;;0.70;;
677;SDS011;321;48.814;9.132;2022-11-20T13:12:50;1.13;;;0.53;;
677;SDS011;321;48.814;9.132;2022-11-20T13:18:01;1.60;;;0.70;;
677;SDS011;321;48.814;9.132;2022-11-20T13:20:29;1.30;;;0.63;;
677;SDS011;321;48.814;9.132;2022-11-20T13:22:56;1.03;;;0.40;;
677;SDS011;321;48.814;9.132;2022-11-20T13:25:26;1.00;;;0.40;;
677;SDS011;321;48.814;9.132;2022-11-20T13:27:57;2.10;;;0.73;;
677;SDS011;321;48.814;9.132;2022-11-20T13:30:28;1.23;;;0.53;;
677;SDS011;321;48.814;9.132;2022-11-20T13:32:56;1.00;;;0.40;;
677;SDS011;321;48.814;9.132;2022-11-20T13:35:26;1.00;;;0.40;;
677;SDS011;321;48.814;9.132;2022-11-20T13:38:01;1.07;;;0.40;;
677;SDS011;321;48.814;9.132;2022-11-20T13:40:28;1.17;;;0.53;;
677;SDS011;321;48.814;9.132;2022-11-20T13:42:55;2.53;;;1.43;;
677;SDS011;321;48.814;9.132;2022-11-20T13:45:27;1.03;;;0.50;;
677;SDS011;321;48.814;9.132;2022-11-20T13:47:56;1.00;;;0.40;;
677;SDS011;321;48.814;9.132;2022-11-20T13:50:31;1.00;;;0.40;;
677;SDS011;321;48.814;9.132;2022-11-20T13:53:36;1.10;;;0.55;;
677;SDS011;321;48.814;9.132;2022-11-20T14:02:14;1.10;;;0.40;;
677;SDS011;321;48.814;9.132;2022-11-20T14:04:46;1.10;;;0.55;;
677;SDS011;321;48.814;9.132;2022-11-20T14:07:14;1.20;;;0.80;;
677;SDS011;321;48.814;9.132;2022-11-20T14:09:49;1.20;;;0.70;;
677;SDS011;321;48.814;9.132;2022-11-20T14:12:17;1.20;;;0.50;;
677;SDS011;321;48.814;9.132;2022-11-20T14:14:49;1.10;;;0.50;;
677;SDS011;321;48.814;9.132;2022-11-20T14:17:24;1.07;;;0.50;;
677;SDS011;321;48.814;9.132;2022-11-20T14:20:04;1.27;;;0.77;;
677;SDS011;321;48.814;9.132;2022-11-20T14:22:32;1.10;;;0.50;;
677;SDS011;321;48.814;9.132;2022-11-20T14:27:32;1.20;;;0.60;;
677;SDS011;321;48.814;9.132;2022-11-20T14:30:01;1.63;;;0.70;;
677;SDS011;321;48.814;9.132;2022-11-20T14:32:27;1.00;;;0.40;;
677;SDS011;321;48.814;9.132;2022-11-20T14:34:55;1.60;;;1.20;;
677;SDS011;321;48.814;9.132;2022-11-20T14:37:27;1.70;;;0.90;;
677;SDS011;321;48.814;9.132;2022-11-20T14:39:57;1.37;;;0.60;;
677;SDS011;321;48.814;9.132;2022-11-20T14:42:25;1.10;;;0.60;;
677;SDS011;321;48.814;9.132;2022-11-20T14:44:54;1.10;;;0.50;;
677;SDS011;321;48.814;9.132;2022-11-20T14:47:21;1.00;;;0.40;;
677;SDS011;321;48.814;9.132;2022-11-20T14:49:50;1.10;;;0.50;;
677;SDS011;321;48.814;9.132;2022-11-20T14:52:18;1.00;;;0.40;;
677;SDS011;321;48.814;9.132;2022-11-20T14:54:47;2.70;;;1.00;;
677;SDS011;321;48.814;9.132;2022-11-20T15:02:43;1.40;;;0.80;;
677;SDS011;321;48.814;9.132;2022-11-20T15:05:10;1.10;;;0.40;;
677;SDS011;321;48.814;9.132;2022-11-20T15:07:38;1.10;;;0.60;;
677;SDS011;321;48.814;9.132;2022-11-20T15:10:13;1.00;;;0.40;;
677;SDS011;321;48.814;9.132;2022-11-20T15:12:40;1.23;;;0.68;;
677;SDS011;321;48.814;9.132;2022-11-20T15:15:12;1.30;;;0.65;;
677;SDS011;321;48.814;9.132;2022-11-20T15:17:44;1.55;;;0.70;;
677;SDS011;321;48.814;9.132;2022-11-20T15:20:11;1.00;;;0.50;;
677;SDS011;321;48.814;9.132;2022-11-20T15:22:39;1.27;;;0.50;;
677;SDS011;321;48.814;9.132;2022-11-20T15:25:11;1.40;;;1.20;;
677;SDS011;321;48.814;9.132;2022-11-20T15:27:41;1.20;;;0.68;;
677;SDS011;321;48.814;9.132;2022-11-20T15:30:18;3.20;;;0.80;;
677;SDS011;321;48.814;9.132;2022-11-20T15:32:44;1.00;;;0.50;;
677;SDS011;321;48.814;9.132;2022-11-20T15:35:11;1.20;;;0.60;;
677;SDS011;321;48.814;9.132;2022-11-20T15:37:38;1.10;;;0.50;;
677;SDS011;321;48.814;9.132;2022-11-20T15:40:04;1.20;;;0.50;;
677;SDS011;321;48.814;9.132;2022-11-20T15:42:33;1.20;;;0.93;;
677;SDS011;321;48.814;9.132;2022-11-20T15:44:59;1.23;;;0.90;;
677;SDS011;321;48.814;9.132;2022-11-20T15:47:27;1.10;;;0.60;;
677;SDS011;321;48.814;9.132;2022-11-20T15:49:55;1.10;;;0.50;;
677;SDS011;321;48.814;9.132;2022-11-20T15:52:21;1.10;;;0.50;;
677;SDS011;321;48.814;9.132;2022-11-20T15:54:46;1.10;;;0.50;;
677;SDS011;321;48.814;9.132;2022-11-20T15:57:12;1.53;;;0.83;;
677;SDS011;321;48.814;9.132;2022-11-20T15:59:38;1.00;;;0.40;;
677;SDS011;321;48.814;9.132;2022-11-20T16:02:12;1.20;;;0.63;;
677;SDS011;321;48.814;9.132;2022-11-20T16:04:39;1.50;;;1.02;;
677;SDS011;321;48.814;9.132;2022-11-20T16:07:05;1.10;;;0.60;;
677;SDS011;321;48.814;9.132;2022-11-20T16:09:30;1.10;;;0.40;;
677;SDS011;321;48.814;9.132;2022-11-20T16:11:56;1.67;;;0.70;;
677;SDS011;321;48.814;9.132;2022-11-20T16:14:24;1.60;;;0.50;;
677;SDS011;321;48.814;9.132;2022-11-20T16:17:09;1.10;;;0.40;;
677;SDS011;321;48.814;9.132;2022-11-20T16:19:34;1.10;;;0.60;;
677;SDS011;321;48.814;9.132;2022-11-20T16:22:00;1.20;;;0.60;;
677;SDS011;321;48.814;9.132;2022-11-20T16:24:26;1.92;;;1.05;;
677;SDS011;321;48.814;9.132;2022-11-20T16:26:52;1.20;;;0.80;;
677;SDS011;321;48.814;9.132;2022-11-20T16:29:19;4.90;;;0.70;;
677;SDS011;321;48.814;9.132;2022-11-20T16:31:44;2.47;;;1.47;;
677;SDS011;321;48.814;9.132;2022-11-20T16:34:10;1.40;;;0.93;;
677;SDS011;321;48.814;9.132;2022-11-20T16:36:35;3.33;;;0.80;;
677;SDS011;321;48.814;9.132;2022-11-20T16:39:03;1.13;;;0.60;;
677;SDS011;321;48.814;9.132;2022-11-20T16:41:30;1.20;;;0.50;;
677;SDS011;321;48.814;9.132;2022-11-20T16:43:58;1.00;;;0.40;;
677;SDS011;321;48.814;9.132;2022-11-20T16:46:26;1.75;;;0.90;;
677;SDS011;321;48.814;9.132;2022-11-20T16:48:56;1.20;;;0.80;;
677;SDS011;321;48.814;9.132;2022-11-20T16:51:27;1.10;;;0.60;;
677;SDS011;321;48.814;9.132;2022-11-20T16:53:54;1.50;;;0.80;;
677;SDS011;321;48.814;9.132;2022-11-20T16:56:20;1.13;;;0.63;;
677;SDS011;321;48.814;9.132;2022-11-20T16:58:50;1.30;;;0.90;;
677;SDS011;321;48.814;9.132;2022-11-20T17:01:18;1.65;;;0.90;;
677;SDS011;321;48.814;9.132;2022-11-20T17:03:46;2.20;;;1.13;;
677;SDS011;321;48.814;9.132;2022-11-20T17:06:19;1.23;;;1.02;;
677;SDS011;321;48.814;9.132;2022-11-20T17:08:46;1.20;;;0.60;;
677;SDS011;321;48.814;9.132;2022-11-20T17:11:14;1.30;;;0.67;;
677;SDS011;321;48.814;9.132;2022-11-20T17:13:42;1.10;;;0.50;;
677;SDS011;321;48.814;9.132;2022-11-20T17:16:12;1.10;;;0.40;;
677;SDS011;321;48.814;9.132;2022-11-20T17:18:39;2.43;;;1.00;;
677;SDS011;321;48.814;9.132;2022-11-20T17:21:05;1.63;;;1.53;;